Broadmoor Village, California
Current Conditions -  °F | °C
As of 7:56 PM on Friday 24 Oct 2014 (Local Time) from KSFO Reporting Station
Scattered Clouds Scattered Clouds  
Wind Chill: 68°   Ceiling: Unl
Heat Index: 68°   Visibility: 10mi
Dew Point: 57°   Wind: 14mph
Humidity: 68%   Direction: 150°SSE
Pressure: 29.9"   Gusts: NA
Location:  37.6817°N, 122.48°W
Report Text: KSFO 250256Z 15012KT 10SM SCT024 SCT180 20/14 A2990 RMK AO2 SLP125 T02000139 53003
Loading
Personal Weather Stations






























Interactive Weather Map
Tropical Storm Tracking
New forecast layout! Learn more

10-Day Weather Forecast

Advertisements
Track Severe Weather on mobile